createdAt,value
2022-08-01T00:03:03.365Z,100703.25
2022-08-01T00:07:06.531Z,100701.34
2022-08-01T00:11:10.305Z,100709.09
2022-08-01T00:15:15.433Z,100708.25
2022-08-01T00:19:19.945Z,100700.19
2022-08-01T00:23:23.646Z,100709.63
2022-08-01T00:27:29.779Z,100709.09
2022-08-01T00:31:32.944Z,100703.53
2022-08-01T00:35:37.571Z,100707.41
2022-08-01T00:39:40.754Z,100711.03
2022-08-01T00:43:43.989Z,100711.31
2022-08-01T00:47:47.070Z,100699.88
2022-08-01T00:51:51.613Z,100702.66
2022-08-01T00:55:55.412Z,100696.28
2022-08-01T00:59:58.928Z,100697.38
2022-08-01T01:04:01.989Z,100701.31
2022-08-01T01:08:10.352Z,100697.38
2022-08-01T01:12:24.357Z,100689.59
2022-08-01T01:16:28.715Z,100694.84
2022-08-01T01:20:34.524Z,100694.03
2022-08-01T01:24:47.621Z,100690.69
2022-08-01T01:29:02.218Z,100699.00
2022-08-01T01:33:08.577Z,100697.91
2022-08-01T01:37:16.492Z,100696.53
2022-08-01T01:41:20.940Z,100697.91
2022-08-01T01:45:26.561Z,100694.84
2022-08-01T01:49:30.870Z,100693.47
2022-08-01T01:53:36.996Z,100705.09
2022-08-01T01:57:42.719Z,100692.38
2022-08-01T02:02:04.879Z,100691.84
2022-08-01T02:06:10.323Z,100688.78
2022-08-01T02:10:14.297Z,100689.91
2022-08-01T02:20:13.451Z,100680.47
2022-08-01T02:24:22.906Z,100674.94
2022-08-01T02:28:38.257Z,100675.78
2022-08-01T02:32:46.389Z,100674.09
2022-08-01T02:36:52.327Z,100684.66
2022-08-01T02:40:58.636Z,100674.34
2022-08-01T02:45:04.580Z,100672.41
2022-08-01T02:49:11.231Z,100669.84
2022-08-01T02:53:18.744Z,100685.63
2022-08-01T02:57:23.590Z,100687.78
2022-08-01T03:01:33.921Z,100691.31
2022-08-01T03:05:41.123Z,100689.47
2022-08-01T03:09:48.283Z,100695.84
2022-08-01T03:13:54.033Z,100695.31
2022-08-01T03:17:57.853Z,100699.50
2022-08-01T03:22:05.091Z,100693.38
2022-08-01T03:26:11.568Z,100694.47
2022-08-01T03:30:16.571Z,100686.94
2022-08-01T03:34:22.304Z,100695.53
2022-08-01T03:38:28.004Z,100687.78
2022-08-01T03:42:38.775Z,100698.38
2022-08-01T03:46:45.567Z,100689.47
2022-08-01T03:50:52.428Z,100695.34
2022-08-01T03:54:58.400Z,100691.44
2022-08-01T03:59:04.561Z,100700.09
2022-08-01T04:03:09.768Z,100702.31
2022-08-01T04:07:24.617Z,100699.19
2022-08-01T04:11:29.766Z,100708.41
2022-08-01T04:15:34.296Z,100698.13
2022-08-01T04:19:37.436Z,100702.28
2022-08-01T04:23:43.485Z,100700.91
2022-08-01T04:27:51.964Z,100705.09
2022-08-01T04:31:59.143Z,100712.03
2022-08-01T04:36:05.092Z,100706.78
2022-08-01T04:40:11.023Z,100720.94
2022-08-01T04:44:14.811Z,100718.53
2022-08-01T04:48:22.857Z,100736.84
2022-08-01T04:52:35.599Z,100729.06
2022-08-01T04:56:38.732Z,100741.78
2022-08-01T05:00:41.897Z,100742.56
2022-08-01T05:04:48.219Z,100738.41
2022-08-01T05:08:51.304Z,100745.63
2022-08-01T05:12:54.498Z,100740.16
2022-08-01T05:16:57.544Z,100751.31
2022-08-01T05:21:02.979Z,100749.09
2022-08-01T05:25:07.179Z,100747.47
2022-08-01T05:29:10.268Z,100747.88
2022-08-01T05:33:13.302Z,100754.19
2022-08-01T05:37:17.648Z,100755.34
2022-08-01T05:41:20.777Z,100751.81
2022-08-01T05:45:23.976Z,100754.72
2022-08-01T05:49:27.188Z,100754.84
2022-08-01T05:53:31.883Z,100759.63
2022-08-01T05:57:34.979Z,100755.78
2022-08-01T06:01:38.084Z,100744.53
2022-08-01T06:05:41.132Z,100739.94
2022-08-01T06:09:45.603Z,100742.94
2022-08-01T06:13:49.091Z,100739.28
2022-08-01T06:17:52.279Z,100734.25
2022-08-01T06:21:55.405Z,100741.09
2022-08-01T06:26:00.133Z,100753.41
2022-08-01T06:30:04.847Z,100734.81
2022-08-01T06:34:08.004Z,100738.47
2022-08-01T06:38:11.179Z,100744.91
2022-08-01T06:42:15.978Z,100754.00
2022-08-01T06:46:19.073Z,100747.78
2022-08-01T06:50:22.107Z,100745.47
2022-08-01T06:54:25.208Z,100738.56
2022-08-01T06:58:31.507Z,100735.75
2022-08-01T07:02:34.998Z,100718.03
2022-08-01T07:06:38.074Z,100721.38
2022-08-01T07:10:41.176Z,100729.28
2022-08-01T07:14:45.709Z,100723.41
2022-08-01T07:18:49.193Z,100708.69
2022-08-01T07:22:52.405Z,100712.00
2022-08-01T07:26:56.079Z,100718.44
2022-08-01T07:31:00.481Z,100714.22
2022-08-01T07:35:03.900Z,100713.91
2022-08-01T07:39:06.946Z,100713.38
2022-08-01T07:43:09.953Z,100724.25
2022-08-01T07:47:14.389Z,100727.59
2022-08-01T07:51:17.438Z,100736.50
2022-08-01T07:55:20.531Z,100740.69
2022-08-01T07:59:26.212Z,100749.84
2022-08-01T08:03:31.316Z,100741.53
2022-08-01T08:07:34.496Z,100728.28
2022-08-01T08:11:38.507Z,100718.44
2022-08-01T08:15:42.898Z,100727.19
2022-08-01T08:19:53.257Z,100731.31
2022-08-01T15:46:48.677Z,100761.28
2022-08-01T15:51:19.038Z,100750.34
2022-08-01T15:55:22.418Z,100746.88
2022-08-01T15:59:25.565Z,100754.91
2022-08-01T16:03:28.889Z,100751.94
2022-08-01T16:07:33.407Z,100752.81
2022-08-01T16:11:40.916Z,100741.25
2022-08-01T16:15:46.074Z,100746.59
2022-08-01T16:19:50.827Z,100760.06
2022-08-01T16:23:55.261Z,100754.09
2022-08-01T16:27:58.467Z,100769.06
2022-08-01T16:32:03.600Z,100765.84
2022-08-01T16:36:24.713Z,100761.03
2022-08-01T16:40:29.689Z,100754.88
2022-08-01T16:44:34.207Z,100753.69
2022-08-01T16:48:37.982Z,100753.91
2022-08-01T16:52:41.931Z,100744.97
2022-08-01T16:56:51.784Z,100738.78
2022-08-01T17:00:56.801Z,100746.63
2022-08-01T17:05:00.554Z,100747.09
2022-08-01T17:09:10.563Z,100749.34
2022-08-01T17:13:14.984Z,100744.13
2022-08-01T17:17:18.332Z,100747.25
2022-08-01T17:21:21.558Z,100747.47
2022-08-01T17:25:25.584Z,100757.59
2022-08-01T17:29:43.563Z,100741.19
2022-08-01T17:33:50.524Z,100753.63
2022-08-01T17:37:56.204Z,100747.84
2022-08-01T17:41:59.322Z,100742.38
2022-08-01T17:46:03.833Z,100746.50
2022-08-01T17:50:09.345Z,100745.75
2022-08-01T17:54:12.891Z,100739.75
2022-08-01T17:58:17.748Z,100747.84
2022-08-01T18:02:42.708Z,100753.44
2022-08-01T18:06:58.364Z,100749.19
2022-08-01T18:11:10.301Z,100756.34
2022-08-01T18:15:15.159Z,100756.81
2022-08-01T18:19:21.083Z,100760.06
2022-08-01T18:23:24.177Z,100756.41
2022-08-01T18:28:23.132Z,100762.91
2022-08-01T18:31:51.491Z,100766.44
2022-08-01T18:35:59.267Z,100769.72
2022-08-01T18:40:08.236Z,100770.06
2022-08-01T18:44:12.542Z,100782.81
2022-08-01T18:48:15.628Z,100776.81
2022-08-01T18:52:20.063Z,100786.06
2022-08-01T18:56:31.875Z,100789.31
2022-08-01T19:00:35.138Z,100786.53
2022-08-01T19:04:38.523Z,100784.91
2022-08-01T19:08:43.517Z,100778.31
2022-08-01T19:12:46.676Z,100790.84
2022-08-01T19:16:49.855Z,100789.97
2022-08-01T19:20:53.008Z,100784.13
2022-08-01T19:24:57.443Z,100793.28
2022-08-01T19:29:08.800Z,100787.63
2022-08-01T19:33:12.265Z,100793.66
2022-08-01T19:37:16.049Z,100805.28
2022-08-01T19:41:21.983Z,100806.88
2022-08-01T19:45:25.504Z,100816.72
2022-08-01T19:49:28.708Z,100824.41
2022-08-01T19:53:37.009Z,100834.13
2022-08-01T19:57:45.202Z,100834.22
2022-08-01T20:01:51.647Z,100838.28
2022-08-01T20:05:55.072Z,100850.09
2022-08-01T20:09:58.410Z,100847.56
2022-08-01T20:14:03.293Z,100848.53
2022-08-01T20:18:07.422Z,100849.63
2022-08-01T20:22:10.616Z,100847.38
2022-08-01T20:26:16.299Z,100854.97
2022-08-01T20:30:21.276Z,100853.94
2022-08-01T20:34:25.785Z,100858.59
2022-08-01T20:38:29.566Z,100877.00
2022-08-01T20:42:34.630Z,100868.41
2022-08-01T20:46:39.918Z,100870.44
2022-08-01T20:51:02.578Z,100871.38
2022-08-01T20:55:06.498Z,100863.09
2022-08-01T20:59:51.538Z,100864.19
2022-08-01T21:03:50.096Z,100863.50
2022-08-01T21:07:54.799Z,100868.75
2022-08-01T21:12:04.242Z,100877.44
2022-08-01T21:16:23.814Z,100881.53
2022-08-01T21:20:34.268Z,100877.41
2022-08-01T21:24:58.422Z,100886.09
2022-08-01T21:29:06.065Z,100896.13
2022-08-01T21:33:13.949Z,100894.78
2022-08-01T21:37:18.966Z,100899.28
2022-08-01T21:42:05.033Z,100899.00
2022-08-01T21:45:57.800Z,100894.94
2022-08-01T21:50:03.181Z,100898.47
2022-08-01T21:54:18.986Z,100904.00
2022-08-01T21:58:33.256Z,100903.66
2022-08-01T22:02:39.176Z,100907.25
2022-08-01T22:06:45.201Z,100904.88
2022-08-01T22:10:54.979Z,100902.72
2022-08-01T22:15:02.878Z,100896.69
2022-08-01T22:19:07.451Z,100895.72
2022-08-01T22:23:11.524Z,100907.53
2022-08-01T22:28:06.645Z,100914.25
2022-08-01T22:31:49.348Z,100925.97
2022-08-01T22:35:53.622Z,100914.47
2022-08-01T22:40:00.610Z,100919.72
2022-08-01T22:44:09.520Z,100922.81
2022-08-01T22:48:19.137Z,100913.81
2022-08-01T22:52:30.238Z,100908.16
2022-08-01T22:56:37.309Z,100910.91
2022-08-01T23:00:43.798Z,100915.69
2022-08-01T23:04:48.652Z,100914.47
2022-08-01T23:08:51.851Z,100916.00
2022-08-01T23:12:56.438Z,100925.56
2022-08-01T23:17:03.418Z,100913.31
2022-08-01T23:21:28.391Z,100911.97
2022-08-01T23:25:34.374Z,100917.28
2022-08-01T23:29:37.657Z,100913.31
2022-08-01T23:33:42.071Z,100900.38
2022-08-01T23:37:45.128Z,100903.91
2022-08-01T23:41:58.426Z,100913.03
2022-08-01T23:46:05.318Z,100911.13
2022-08-01T23:50:11.468Z,100912.78
2022-08-01T23:54:14.836Z,100916.41
2022-08-01T23:58:19.644Z,100910.03
